Time;durP1;ratioP1;P1;durP2;ratioP2;P2;SDS_P1;SDS_P2;PMS_P1;PMS_P2;Temp;Humidity;BMP_temperature;BMP_pressure;BME280_temperature;BME280_humidity;BME280_pressure;Samples;Min_cycle;Max_cycle;Signal;HPM_P1;HPM_P2
2021/07/17 00:02:22;;;;;;;12.53;6.37;;;;;;;17.30;100.00;101875.28;5072012;28;20217;-75
2021/07/17 00:04:47;;;;;;;11.43;4.47;;;;;;;17.27;100.00;101887.78;5072178;28;20526;-74
2021/07/17 00:07:13;;;;;;;6.50;5.80;;;;;;;17.27;100.00;101873.16;5071886;28;20178;-74
2021/07/17 00:09:38;;;;;;;5.97;5.43;;;;;;;17.25;100.00;101796.13;5072221;28;20186;-74
2021/07/17 00:12:04;;;;;;;6.23;5.60;;;;;;;17.22;100.00;101811.41;5071793;28;20230;-73
2021/07/17 00:14:29;;;;;;;7.03;5.90;;;;;;;17.20;100.00;101793.50;5071874;28;20690;-75
2021/07/17 00:16:54;;;;;;;10.97;5.90;;;;;;;17.19;100.00;101795.47;5071805;28;20674;-75
2021/07/17 00:19:20;;;;;;;9.13;6.07;;;;;;;17.17;100.00;101788.63;5071812;28;20221;-73
2021/07/17 00:21:46;;;;;;;6.47;4.77;;;;;;;17.12;100.00;101777.75;5071439;28;20220;-74
2021/07/17 00:24:11;;;;;;;9.30;4.67;;;;;;;17.08;100.00;101787.84;5071785;28;20171;-74
2021/07/17 00:26:37;;;;;;;10.30;5.60;;;;;;;17.06;100.00;101763.28;5071811;28;20178;-74
2021/07/17 00:29:02;;;;;;;7.00;5.40;;;;;;;17.03;100.00;101754.84;5071485;28;20311;-74
2021/07/17 00:31:28;;;;;;;13.47;6.37;;;;;;;16.99;100.00;101754.66;5070054;28;20206;-74
2021/07/17 00:33:53;;;;;;;12.20;5.67;;;;;;;16.93;100.00;101756.78;5071504;28;20175;-74
2021/07/17 00:36:18;;;;;;;8.40;6.07;;;;;;;16.90;100.00;101726.22;5071355;28;20495;-74
2021/07/17 00:38:44;;;;;;;13.03;6.20;;;;;;;16.86;100.00;101745.38;5070139;28;20185;-74
2021/07/17 00:41:09;;;;;;;5.03;4.53;;;;;;;16.83;100.00;101735.00;5070969;28;20677;-74
2021/07/17 00:43:34;;;;;;;6.43;5.40;;;;;;;16.80;100.00;101730.13;5071342;28;20188;-75
2021/07/17 00:46:00;;;;;;;5.53;5.03;;;;;;;16.79;100.00;101868.47;5071424;28;20198;-74
2021/07/17 00:48:25;;;;;;;7.10;5.43;;;;;;;16.77;100.00;101729.94;5070965;28;20166;-74
2021/07/17 00:50:51;;;;;;;8.87;5.73;;;;;;;16.74;100.00;101728.63;5071050;28;20251;-73
2021/07/17 00:53:16;;;;;;;7.93;6.80;;;;;;;16.71;100.00;101725.72;5071284;28;20526;-73
2021/07/17 00:55:47;;;;;;;7.57;6.03;;;;;;;16.68;100.00;101712.56;5071218;28;20262;-74
2021/07/17 00:58:15;;;;;;;7.83;5.77;;;;;;;16.66;100.00;101727.47;5071112;28;20393;-73
2021/07/17 01:00:41;;;;;;;15.70;7.33;;;;;;;16.65;100.00;101711.22;5070989;28;20640;-74
2021/07/17 01:03:08;;;;;;;9.57;5.90;;;;;;;16.64;100.00;101713.19;5070754;28;20181;-75
2021/07/17 01:05:34;;;;;;;8.33;6.90;;;;;;;16.65;100.00;101703.75;5070931;28;20189;-74
2021/07/17 01:08:00;;;;;;;11.70;5.87;;;;;;;16.65;100.00;101702.97;5070908;28;20170;-73
2021/07/17 01:10:27;;;;;;;7.00;5.83;;;;;;;16.66;100.00;101691.59;5070900;28;20179;-74
2021/07/17 01:12:52;;;;;;;8.40;6.80;;;;;;;16.69;100.00;101711.44;5070845;28;20185;-74
2021/07/17 01:15:18;;;;;;;6.83;6.13;;;;;;;16.68;100.00;101683.03;5070945;28;20178;-74
2021/07/17 01:17:44;;;;;;;14.27;7.20;;;;;;;16.70;100.00;101688.22;5070631;28;20179;-74
2021/07/17 01:20:12;;;;;;;9.53;7.13;;;;;;;16.69;100.00;101679.13;5070842;28;20174;-74
2021/07/17 01:22:39;;;;;;;4.80;4.40;;;;;;;16.72;100.00;101697.78;5070633;28;20179;-74
2021/07/17 01:25:11;;;;;;;9.77;5.97;;;;;;;16.73;100.00;101690.31;5070822;28;20182;-73
2021/07/17 01:27:38;;;;;;;9.93;7.17;;;;;;;16.73;100.00;101685.63;5070729;28;20159;-74
2021/07/17 01:30:15;;;;;;;9.90;5.27;;;;;;;16.72;100.00;101694.22;5069407;28;20194;-74
2021/07/17 01:32:41;;;;;;;16.23;7.63;;;;;;;16.70;100.00;101693.72;5069334;28;20182;-73
2021/07/17 01:35:07;;;;;;;6.60;5.97;;;;;;;16.68;100.00;101685.78;5071061;28;20186;-74
2021/07/17 01:37:32;;;;;;;6.60;6.10;;;;;;;16.68;100.00;101682.22;5070449;28;20179;-74
2021/07/17 01:40:00;;;;;;;10.83;6.63;;;;;;;16.63;100.00;101672.09;5070605;28;20186;-74
2021/07/17 01:42:25;;;;;;;9.13;6.83;;;;;;;16.65;100.00;101680.88;5071095;28;20189;-74
2021/07/17 01:44:51;;;;;;;8.67;6.23;;;;;;;16.66;100.00;101690.78;5070543;28;20182;-74
2021/07/17 01:47:17;;;;;;;12.83;7.67;;;;;;;16.63;100.00;101670.13;5070301;28;20522;-74
2021/07/17 01:49:43;;;;;;;7.20;4.97;;;;;;;16.62;100.00;101823.03;5070614;28;20219;-74
2021/07/17 01:52:09;;;;;;;9.63;5.50;;;;;;;16.58;100.00;101772.41;5071129;28;20205;-74
2021/07/17 01:54:36;;;;;;;6.93;6.30;;;;;;;16.56;100.00;101696.59;5074548;28;20590;-74
2021/07/17 01:57:02;;;;;;;8.97;6.53;;;;;;;16.57;100.00;101720.28;5074323;28;20588;-74
2021/07/17 01:59:28;;;;;;;14.50;7.87;;;;;;;16.55;100.00;101759.25;5074412;28;20554;-74
2021/07/17 02:01:53;;;;;;;10.97;7.70;;;;;;;16.57;100.00;101696.28;5074340;28;20186;-73
2021/07/17 02:04:19;;;;;;;11.50;5.33;;;;;;;16.55;100.00;101697.72;5072966;28;20220;-74
2021/07/17 02:06:44;;;;;;;4.77;3.90;;;;;;;16.53;100.00;101689.78;5074326;28;20255;-75
2021/07/17 02:09:09;;;;;;;12.97;8.30;;;;;;;16.54;100.00;101674.84;5074107;28;20174;-74
2021/07/17 02:11:35;;;;;;;15.77;8.13;;;;;;;16.52;100.00;101618.38;5073923;28;20244;-75
2021/07/17 02:14:00;;;;;;;13.73;8.27;;;;;;;16.52;100.00;101651.47;5074221;28;20266;-74
2021/07/17 02:16:26;;;;;;;8.63;7.73;;;;;;;16.54;100.00;101618.84;5074100;28;20192;-74
2021/07/17 02:18:51;;;;;;;16.43;8.53;;;;;;;16.51;100.00;101747.22;5073911;28;20166;-74
2021/07/17 02:21:17;;;;;;;11.83;7.37;;;;;;;16.53;100.00;101738.63;5073825;28;20575;-75
2021/07/17 02:23:44;;;;;;;10.20;7.97;;;;;;;16.52;100.00;101762.66;5073846;28;20590;-73
2021/07/17 02:26:10;;;;;;;13.73;8.23;;;;;;;16.53;100.00;101746.91;5073807;28;20545;-74
2021/07/17 02:28:38;;;;;;;9.37;6.90;;;;;;;16.53;100.00;101742.19;5073814;28;20257;-73
2021/07/17 02:31:04;;;;;;;7.73;6.70;;;;;;;16.52;100.00;101761.84;5073546;28;20206;-74
2021/07/17 02:33:30;;;;;;;11.33;7.33;;;;;;;16.54;100.00;101774.16;5073909;28;20633;-74
2021/07/17 02:35:55;;;;;;;7.37;6.67;;;;;;;16.54;100.00;101770.59;5073718;28;20178;-74
2021/07/17 02:38:21;;;;;;;7.77;5.43;;;;;;;16.54;100.00;101762.31;5073519;28;20180;-74
2021/07/17 02:40:46;;;;;;;10.20;7.90;;;;;;;16.56;100.00;101752.59;5073300;28;20265;-74
2021/07/17 02:43:11;;;;;;;11.93;7.60;;;;;;;16.57;100.00;101762.50;5073716;28;20510;-74
2021/07/17 02:45:37;;;;;;;16.73;9.50;;;;;;;16.59;100.00;101759.41;5073562;28;20253;-74
2021/07/17 02:48:03;;;;;;;5.87;5.37;;;;;;;16.58;100.00;101755.03;5073349;28;20240;-74
2021/07/17 02:50:28;;;;;;;4.97;3.87;;;;;;;16.57;100.00;101745.94;5073327;28;20220;-74
2021/07/17 02:52:54;;;;;;;12.07;6.80;;;;;;;16.54;100.00;101756.81;5073311;28;20270;-74
2021/07/17 02:55:21;;;;;;;7.87;6.43;;;;;;;16.55;100.00;101739.94;5073467;28;20534;-75
2021/07/17 02:57:47;;;;;;;19.03;8.53;;;;;;;16.59;100.00;101751.13;5073504;28;20261;-74
2021/07/17 03:00:13;;;;;;;11.67;7.83;;;;;;;16.58;100.00;101752.25;5073409;28;20223;-74
2021/07/17 03:02:39;;;;;;;9.77;7.60;;;;;;;16.55;100.00;101767.53;5072730;28;20186;-74
2021/07/17 03:05:05;;;;;;;12.87;7.43;;;;;;;16.57;100.00;101781.00;5073230;28;20177;-75
2021/07/17 03:07:31;;;;;;;11.77;8.50;;;;;;;16.53;100.00;101780.81;5073345;28;20720;-74
2021/07/17 03:09:56;;;;;;;10.67;6.57;;;;;;;16.49;100.00;101788.13;5073352;28;20175;-74
2021/07/17 03:12:21;;;;;;;12.37;8.47;;;;;;;16.47;100.00;101786.78;5073055;28;20276;-73
2021/07/17 03:14:47;;;;;;;14.83;8.07;;;;;;;16.48;100.00;101789.22;5073306;28;20181;-75
2021/07/17 03:17:13;;;;;;;11.73;8.07;;;;;;;16.47;100.00;101815.19;5073360;28;20587;-74
2021/07/17 03:19:39;;;;;;;14.60;7.90;;;;;;;16.43;100.00;101794.91;5078019;28;20175;-74
2021/07/17 03:22:04;;;;;;;8.90;7.57;;;;;;;16.44;100.00;101799.28;5076495;28;20167;-75
2021/07/17 03:24:30;;;;;;;14.63;8.60;;;;;;;16.45;100.00;101797.31;5073910;28;20179;-75
2021/07/17 03:26:57;;;;;;;7.87;7.17;;;;;;;16.47;100.00;101790.34;5073171;28;20257;-75
2021/07/17 03:29:22;;;;;;;8.67;7.20;;;;;;;16.44;100.00;101815.84;5073399;28;20171;-74
2021/07/17 03:31:47;;;;;;;9.80;8.73;;;;;;;16.44;100.00;101798.47;5071389;28;20260;-74
2021/07/17 03:34:13;;;;;;;18.53;8.70;;;;;;;16.45;100.00;101781.59;5066022;28;20190;-74
2021/07/17 03:36:38;;;;;;;10.23;7.27;;;;;;;16.46;100.00;101830.13;5072606;28;20190;-74
2021/07/17 03:39:03;;;;;;;9.23;5.73;;;;;;;16.45;100.00;101811.94;5072976;28;20175;-74
2021/07/17 03:41:29;;;;;;;9.23;6.80;;;;;;;16.41;100.00;101816.47;5072695;28;20185;-74
2021/07/17 03:43:54;;;;;;;8.77;7.07;;;;;;;16.45;100.00;101819.41;5072702;28;20198;-75
2021/07/17 03:46:20;;;;;;;14.80;7.73;;;;;;;16.46;100.00;101821.03;5072367;28;20174;-74
2021/07/17 03:48:45;;;;;;;18.13;8.20;;;;;;;16.46;100.00;101852.19;5072625;28;20181;-75
2021/07/17 03:51:10;;;;;;;7.77;7.07;;;;;;;16.50;100.00;101861.47;5072582;28;20264;-74
2021/07/17 03:53:36;;;;;;;12.73;6.57;;;;;;;16.51;100.00;101849.31;5072827;28;20183;-74
2021/07/17 03:56:01;;;;;;;7.80;7.10;;;;;;;16.50;100.00;101833.88;5072383;28;20175;-74
2021/07/17 03:58:26;;;;;;;8.97;8.13;;;;;;;16.52;100.00;101856.47;5072234;28;20578;-74
2021/07/17 04:00:52;;;;;;;6.77;5.97;;;;;;;16.51;100.00;101835.50;5072036;28;20233;-74
2021/07/17 04:03:17;;;;;;;7.37;6.67;;;;;;;16.52;100.00;101823.34;5072133;28;20183;-75
2021/07/17 04:05:43;;;;;;;7.50;5.23;;;;;;;16.51;100.00;101854.00;5072059;28;20175;-74
2021/07/17 04:08:08;;;;;;;6.27;4.97;;;;;;;16.47;100.00;101847.47;5072040;28;20174;-74
2021/07/17 04:10:34;;;;;;;8.00;6.53;;;;;;;16.47;100.00;101844.72;5071922;28;20185;-74
2021/07/17 04:13:05;;;;;;;7.60;6.90;;;;;;;16.50;100.00;101868.94;5070605;28;20201;-74
2021/07/17 04:15:31;;;;;;;8.80;7.90;;;;;;;16.52;100.00;101863.91;5071105;28;20182;-74
2021/07/17 04:17:56;;;;;;;6.80;6.10;;;;;;;16.54;100.00;101886.47;5071919;28;20193;-74
2021/07/17 04:20:22;;;;;;;6.80;6.17;;;;;;;16.53;100.00;101891.19;5071965;28;20638;-74
2021/07/17 04:22:47;;;;;;;7.90;6.00;;;;;;;16.51;100.00;101893.47;5071779;28;20342;-74
2021/07/17 04:25:13;;;;;;;7.73;5.70;;;;;;;16.49;100.00;101879.16;5071794;28;20262;-73
2021/07/17 04:27:39;;;;;;;9.77;7.87;;;;;;;16.49;100.00;101911.44;5071748;28;20265;-75
2021/07/17 04:30:06;;;;;;;8.73;6.57;;;;;;;16.52;100.00;101916.34;5071682;28;20183;-73
2021/07/17 04:32:32;;;;;;;10.47;6.10;;;;;;;16.51;100.00;101928.50;5071500;28;20712;-73
2021/07/17 04:34:57;;;;;;;7.63;6.90;;;;;;;16.52;100.00;101925.44;5070197;28;20178;-72
2021/07/17 04:37:22;;;;;;;9.03;7.20;;;;;;;16.55;100.00;101922.03;5071796;28;20187;-72
2021/07/17 04:39:48;;;;;;;9.90;6.47;;;;;;;16.58;100.00;101928.88;5071466;28;20178;-73
2021/07/17 04:42:14;;;;;;;15.47;7.80;;;;;;;16.60;100.00;101945.91;5069490;28;20220;-73
2021/07/17 04:44:39;;;;;;;7.17;6.57;;;;;;;16.60;100.00;101971.56;5070537;28;20206;-73
2021/07/17 04:47:04;;;;;;;10.53;7.80;;;;;;;16.61;100.00;101964.91;5076597;28;20190;-73
2021/07/17 04:49:30;;;;;;;11.60;7.87;;;;;;;16.63;100.00;101959.88;5078174;28;20622;-73
2021/07/17 04:51:55;;;;;;;10.77;7.23;;;;;;;16.62;100.00;101943.66;5070786;28;20479;-74
2021/07/17 04:54:20;;;;;;;9.10;7.10;;;;;;;16.65;100.00;101965.94;5070728;28;20208;-74
2021/07/17 04:56:46;;;;;;;9.70;7.33;;;;;;;16.68;100.00;101966.47;5063654;28;20174;-74
2021/07/17 04:59:11;;;;;;;18.50;9.97;;;;;;;16.68;100.00;101974.75;5078851;28;20182;-72
2021/07/17 05:01:37;;;;;;;9.10;8.07;;;;;;;16.71;100.00;102008.03;5063829;28;20248;-75
2021/07/17 05:04:02;;;;;;;18.50;8.80;;;;;;;16.71;100.00;101985.97;5049853;28;20190;-74
2021/07/17 05:06:27;;;;;;;9.83;7.53;;;;;;;16.77;100.00;101992.16;5050290;28;20195;-75
2021/07/17 05:08:53;;;;;;;12.20;7.73;;;;;;;16.78;100.00;101996.53;5050841;28;20189;-75
2021/07/17 05:11:18;;;;;;;11.57;8.80;;;;;;;16.81;100.00;102018.03;5050669;28;20218;-74
2021/07/17 05:13:44;;;;;;;8.40;7.40;;;;;;;16.81;100.00;101998.69;5050848;28;20183;-75
2021/07/17 05:16:09;;;;;;;8.93;8.03;;;;;;;16.84;100.00;102047.75;5051159;28;20646;-75
2021/07/17 05:18:34;;;;;;;11.67;8.97;;;;;;;16.86;100.00;102017.88;5050879;28;20646;-75
2021/07/17 05:21:00;;;;;;;16.70;8.57;;;;;;;16.92;100.00;102047.81;5050693;28;20625;-75
2021/07/17 05:23:25;;;;;;;8.83;7.73;;;;;;;16.94;100.00;102041.97;5050845;28;20179;-74
2021/07/17 05:25:51;;;;;;;13.40;8.27;;;;;;;16.96;100.00;102061.81;5050878;28;20623;-74
2021/07/17 05:28:17;;;;;;;21.93;7.93;;;;;;;16.94;100.00;102075.94;5055117;28;20235;-75
2021/07/17 05:30:42;;;;;;;9.57;7.73;;;;;;;16.91;100.00;102078.47;5070842;28;20336;-75
2021/07/17 05:33:10;;;;;;;12.83;9.00;;;;;;;16.91;100.00;102093.09;5070808;28;20525;-75
2021/07/17 05:35:35;;;;;;;15.07;8.13;;;;;;;16.96;100.00;102108.75;5070564;28;20174;-75
2021/07/17 05:38:00;;;;;;;13.47;8.23;;;;;;;16.97;100.00;102187.69;5070574;28;20175;-75
2021/07/17 05:40:26;;;;;;;17.43;8.93;;;;;;;17.00;100.00;102115.25;5070433;28;20219;-74
2021/07/17 05:42:51;;;;;;;12.17;8.53;;;;;;;17.03;100.00;102122.09;5069068;28;20177;-74
2021/07/17 05:45:17;;;;;;;8.03;7.23;;;;;;;17.02;100.00;102109.41;5070537;28;20251;-74
2021/07/17 05:47:43;;;;;;;13.73;8.93;;;;;;;17.00;100.00;102108.94;5070185;28;20247;-74
2021/07/17 05:50:09;;;;;;;28.70;7.97;;;;;;;17.03;100.00;102127.63;5070559;28;20651;-75
2021/07/17 05:52:34;;;;;;;19.60;9.23;;;;;;;17.06;100.00;102183.03;5070212;28;20280;-74
2021/07/17 05:55:00;;;;;;;9.27;8.10;;;;;;;17.10;100.00;102159.22;5070467;28;20178;-75
2021/07/17 05:57:25;;;;;;;13.07;8.30;;;;;;;17.11;100.00;102198.69;5070466;28;20175;-75
2021/07/17 05:59:50;;;;;;;10.03;7.70;;;;;;;17.11;100.00;102171.88;5070462;28;20171;-75
2021/07/17 06:02:17;;;;;;;18.80;9.07;;;;;;;17.14;100.00;102206.34;5070186;28;20235;-74
2021/07/17 06:04:43;;;;;;;17.03;9.20;;;;;;;17.20;100.00;102274.97;5070350;28;20251;-75
2021/07/17 06:07:08;;;;;;;10.20;8.43;;;;;;;17.24;100.00;102806.44;5069966;28;20641;-74
2021/07/17 06:09:34;;;;;;;10.23;9.07;;;;;;;17.22;100.00;102477.16;5070245;28;20171;-74
2021/07/17 06:11:59;;;;;;;15.33;9.27;;;;;;;17.20;100.00;102318.34;5069514;28;20244;-74
2021/07/17 06:14:24;;;;;;;9.13;7.40;;;;;;;17.21;100.00;102409.22;5069042;28;20258;-75
2021/07/17 06:16:50;;;;;;;13.97;10.30;;;;;;;17.21;100.00;102602.59;5069911;28;20249;-74
2021/07/17 06:19:15;;;;;;;16.73;9.97;;;;;;;17.24;100.00;102712.50;5069689;28;20642;-74
2021/07/17 06:21:41;;;;;;;12.33;8.23;;;;;;;17.25;100.00;102589.00;5069695;28;20175;-74
2021/07/17 06:24:06;;;;;;;15.17;9.53;;;;;;;17.23;100.00;102339.84;5069633;28;20175;-74
2021/07/17 06:26:32;;;;;;;14.27;8.47;;;;;;;17.30;100.00;102629.53;5072527;28;20182;-75
2021/07/17 06:28:57;;;;;;;11.93;9.13;;;;;;;17.33;100.00;103825.53;5070799;28;20178;-75
2021/07/17 06:31:23;;;;;;;9.23;8.37;;;;;;;17.42;100.00;102379.19;5069021;28;20201;-74
2021/07/17 06:33:48;;;;;;;9.73;8.77;;;;;;;17.49;100.00;102376.00;5069513;28;20167;-75
2021/07/17 06:36:15;;;;;;;9.60;8.70;;;;;;;17.52;100.00;102698.78;5069605;28;20173;-75
2021/07/17 06:38:41;;;;;;;11.47;8.50;;;;;;;17.57;100.00;102454.59;5071025;28;20170;-75
2021/07/17 06:41:07;;;;;;;11.50;8.57;;;;;;;17.62;100.00;102236.94;5073399;28;20170;-75
2021/07/17 06:43:32;;;;;;;10.90;7.77;;;;;;;17.68;100.00;102207.22;5073970;28;20167;-75
2021/07/17 06:45:58;;;;;;;13.23;8.53;;;;;;;17.71;100.00;102201.09;5073565;28;20258;-75
2021/07/17 06:48:23;;;;;;;12.97;8.10;;;;;;;17.74;100.00;102170.84;5073133;28;20171;-74
2021/07/17 06:50:48;;;;;;;8.17;7.37;;;;;;;17.78;100.00;102169.06;5072918;28;20610;-75
2021/07/17 06:53:14;;;;;;;13.20;7.53;;;;;;;17.80;100.00;102146.66;5073220;28;20202;-74
2021/07/17 06:55:41;;;;;;;8.60;7.77;;;;;;;17.80;100.00;102138.38;5073239;28;20166;-74
2021/07/17 06:58:06;;;;;;;8.20;7.40;;;;;;;17.78;100.00;102115.72;5073353;28;20175;-75
2021/07/17 07:00:34;;;;;;;8.90;7.97;;;;;;;17.75;100.00;102106.13;5068576;28;20287;-75
2021/07/17 07:03:00;;;;;;;8.23;6.93;;;;;;;17.74;100.00;102117.50;5072390;28;20179;-75
2021/07/17 07:05:25;;;;;;;10.83;8.23;;;;;;;17.80;100.00;102094.94;5081747;28;20189;-75
2021/07/17 07:07:50;;;;;;;10.87;8.10;;;;;;;17.91;100.00;102089.91;5054717;28;20167;-79
2021/07/17 07:10:16;;;;;;;9.87;8.67;;;;;;;18.01;100.00;102083.28;5071145;28;20530;-75
2021/07/17 07:12:42;;;;;;;13.27;9.13;;;;;;;18.08;100.00;102089.13;5072700;28;20241;-75
2021/07/17 07:15:09;;;;;;;11.83;8.83;;;;;;;18.07;100.00;102054.31;5072714;28;20222;-74
2021/07/17 07:17:36;;;;;;;9.07;6.97;;;;;;;18.07;100.00;102091.09;5075059;28;20178;-74
2021/07/17 07:20:03;;;;;;;13.67;7.50;;;;;;;18.07;100.00;102095.81;5078527;28;20396;-74
2021/07/17 07:22:29;;;;;;;12.00;7.80;;;;;;;18.13;100.00;102080.72;5072581;28;20220;-75
2021/07/17 07:24:54;;;;;;;11.37;7.70;;;;;;;18.20;100.00;102061.66;5072566;28;20179;-75
2021/07/17 07:27:19;;;;;;;11.67;7.30;;;;;;;18.31;100.00;102145.19;5072477;28;20177;-75
2021/07/17 07:29:45;;;;;;;9.17;8.07;;;;;;;18.27;100.00;102625.69;5080789;28;20178;-75
2021/07/17 07:32:10;;;;;;;8.67;7.87;;;;;;;18.29;100.00;102223.00;5071036;28;20194;-75
2021/07/17 07:34:36;;;;;;;8.40;7.43;;;;;;;18.27;100.00;102207.84;5072830;28;20622;-75
2021/07/17 07:37:01;;;;;;;10.13;6.50;;;;;;;18.24;100.00;102144.84;5072370;28;20163;-75
2021/07/17 07:39:27;;;;;;;12.07;6.63;;;;;;;18.29;100.00;102155.78;5068315;28;20196;-75
2021/07/17 07:41:52;;;;;;;8.63;7.17;;;;;;;18.32;100.00;102144.88;5067194;28;20266;-75
2021/07/17 07:44:18;;;;;;;10.97;7.77;;;;;;;18.37;100.00;102136.44;5071221;28;20202;-74
2021/07/17 07:46:43;;;;;;;8.03;7.17;;;;;;;18.37;100.00;102122.59;5072213;28;20179;-75
2021/07/17 07:49:08;;;;;;;8.77;6.77;;;;;;;18.42;100.00;102110.53;5071913;28;20170;-75
2021/07/17 07:51:34;;;;;;;11.20;7.17;;;;;;;18.46;100.00;102105.97;5071494;28;20202;-75
2021/07/17 07:54:00;;;;;;;10.03;7.23;;;;;;;18.43;100.00;102118.53;5071089;28;20182;-75
2021/07/17 07:56:25;;;;;;;12.87;7.90;;;;;;;18.44;100.00;102097.19;5071460;28;20680;-75
2021/07/17 07:58:51;;;;;;;13.67;7.53;;;;;;;18.46;100.00;102078.31;5071907;28;20178;-75
2021/07/17 08:01:18;;;;;;;7.20;6.50;;;;;;;18.50;100.00;102076.50;5070858;28;20183;-75
2021/07/17 08:03:43;;;;;;;9.67;7.03;;;;;;;18.60;100.00;102087.25;5072019;28;20689;-75
2021/07/17 08:06:09;;;;;;;8.17;7.30;;;;;;;18.67;100.00;102081.28;5072102;28;20198;-75
2021/07/17 08:08:34;;;;;;;6.87;6.20;;;;;;;18.78;100.00;102081.75;5071379;28;20179;-74
2021/07/17 08:11:01;;;;;;;6.47;5.90;;;;;;;18.80;100.00;102063.66;5071641;28;20209;-75
2021/07/17 08:13:27;;;;;;;5.33;4.93;;;;;;;18.79;100.00;102048.19;5071782;28;20225;-74
2021/07/17 08:15:54;;;;;;;7.90;7.10;;;;;;;18.84;100.00;102050.00;5072098;28;20206;-75
2021/07/17 08:18:20;;;;;;;6.53;4.60;;;;;;;18.94;99.42;102047.66;5071343;28;20182;-74
2021/07/17 08:20:46;;;;;;;9.50;6.60;;;;;;;19.10;99.17;102042.44;5071627;28;20505;-75
2021/07/17 08:23:11;;;;;;;9.70;6.17;;;;;;;19.32;98.87;102053.28;5071763;28;20182;-74
2021/07/17 08:25:37;;;;;;;7.00;6.40;;;;;;;19.47;97.07;102049.16;5071619;28;20213;-74
2021/07/17 08:28:03;;;;;;;5.60;4.70;;;;;;;19.50;96.11;102067.88;5071745;28;20171;-74
2021/07/17 08:30:28;;;;;;;7.03;5.50;;;;;;;19.67;95.78;102061.47;5070179;28;20221;-74
2021/07/17 08:32:54;;;;;;;8.87;5.47;;;;;;;19.83;95.13;102053.44;5071122;28;20297;-75
2021/07/17 08:35:20;;;;;;;7.43;5.27;;;;;;;19.92;94.50;102043.06;5072006;28;20202;-75
2021/07/17 08:37:46;;;;;;;10.17;6.53;;;;;;;20.09;94.44;102040.19;5071475;28;20719;-75
2021/07/17 08:40:11;;;;;;;9.17;5.70;;;;;;;20.29;94.36;102040.56;5071315;28;20178;-75
2021/07/17 08:42:43;;;;;;;6.27;5.10;;;;;;;20.35;92.04;102037.22;5071711;28;20178;-75
2021/07/17 08:45:10;;;;;;;6.47;4.30;;;;;;;20.48;92.78;102032.56;5071253;28;20185;-74
2021/07/17 08:47:40;;;;;;;5.63;4.13;;;;;;;20.39;90.14;102093.69;5071039;28;20642;-74
2021/07/17 08:50:07;;;;;;;4.17;3.73;;;;;;;20.42;91.64;102237.44;5071237;28;20178;-75
2021/07/17 08:52:34;;;;;;;5.77;4.10;;;;;;;20.45;89.49;102128.47;5070757;28;20210;-75
2021/07/17 08:55:07;;;;;;;3.17;2.87;;;;;;;20.53;90.39;102059.31;5071178;28;20174;-74
2021/07/17 08:57:38;;;;;;;4.10;2.97;;;;;;;20.59;89.38;102025.47;5071299;28;20159;-73
2021/07/17 09:00:21;;;;;;;4.20;3.83;;;;;;;20.73;89.64;102016.84;5071536;28;20261;-74
2021/07/17 09:02:48;;;;;;;4.40;3.20;;;;;;;20.92;88.42;102031.00;5080605;28;20259;-74
2021/07/17 09:05:21;;;;;;;3.50;2.87;;;;;;;21.02;87.36;102088.94;5073012;28;20699;-74
2021/07/17 09:07:46;;;;;;;5.60;3.17;;;;;;;21.21;87.56;102077.28;5061466;28;20174;-74
2021/07/17 09:10:25;;;;;;;2.97;2.30;;;;;;;21.39;86.75;102045.38;5069700;28;20182;-74
2021/07/17 09:13:08;;;;;;;3.20;2.60;;;;;;;21.59;85.58;102034.50;5066287;28;20278;-74
2021/07/17 09:15:35;;;;;;;5.27;3.13;;;;;;;21.64;83.25;102096.28;5069091;28;20181;-75
2021/07/17 09:18:00;;;;;;;9.20;3.37;;;;;;;21.70;83.31;102085.75;5069330;28;20187;-74
2021/07/17 09:20:26;;;;;;;5.00;3.13;;;;;;;21.92;83.12;102351.66;5070937;28;20182;-74
2021/07/17 09:23:03;;;;;;;4.27;1.93;;;;;;;22.03;81.65;102305.53;5070913;28;20171;-74
2021/07/17 09:25:35;;;;;;;5.17;2.87;;;;;;;22.11;81.93;102571.13;5070866;28;20171;-74
2021/07/17 09:28:25;;;;;;;2.23;2.03;;;;;;;22.24;81.95;102320.22;5070874;28;20540;-74
2021/07/17 09:30:58;;;;;;;2.80;2.50;;;;;;;22.38;81.62;102155.56;5070844;28;20651;-74
2021/07/17 09:33:25;;;;;;;2.77;2.40;;;;;;;22.48;80.14;102021.38;5071039;28;20223;-75
2021/07/17 09:35:52;;;;;;;3.13;2.10;;;;;;;22.57;79.67;102018.47;5070806;28;20300;-75
2021/07/17 09:38:18;;;;;;;5.50;2.37;;;;;;;22.65;79.45;102013.88;5070684;28;20185;-75
2021/07/17 09:40:59;;;;;;;4.87;2.43;;;;;;;22.68;78.17;101979.72;5070714;28;20217;-74
2021/07/17 09:43:38;;;;;;;3.27;2.30;;;;;;;22.80;77.15;101957.38;5070992;28;20194;-75
2021/07/17 09:46:15;;;;;;;4.20;1.87;;;;;;;22.92;76.28;102979.66;5070952;28;20170;-74
2021/07/17 09:48:46;;;;;;;3.77;2.30;;;;;;;22.99;76.87;102174.94;5070662;28;20185;-75
2021/07/17 09:51:18;;;;;;;3.23;2.00;;;;;;;23.12;76.78;101920.00;5070436;28;20205;-74
2021/07/17 09:53:44;;;;;;;1.80;1.70;;;;;;;23.25;73.33;101903.16;5070623;28;20205;-74
2021/07/17 09:56:22;;;;;;;3.00;2.30;;;;;;;23.27;73.24;103206.28;5070424;28;20538;-75
2021/07/17 09:58:47;;;;;;;2.13;1.73;;;;;;;23.42;71.93;102298.91;5068452;28;20576;-73
2021/07/17 10:01:13;;;;;;;2.87;2.37;;;;;;;23.45;72.53;102069.44;5069859;28;20214;-74
2021/07/17 10:03:39;;;;;;;5.87;2.30;;;;;;;23.53;72.63;101969.97;5068702;28;20179;-74
2021/07/17 10:06:07;;;;;;;2.30;2.17;;;;;;;23.60;71.44;101904.03;5070302;28;20182;-75
2021/07/17 10:08:34;;;;;;;2.43;1.73;;;;;;;23.61;70.35;101971.81;5070518;28;20230;-75
2021/07/17 10:11:02;;;;;;;2.60;1.70;;;;;;;23.55;69.29;101889.50;5070227;28;20198;-74
2021/07/17 10:13:28;;;;;;;1.77;1.53;;;;;;;23.57;70.28;101889.94;5071353;28;20183;-75
2021/07/17 10:15:56;;;;;;;2.00;1.87;;;;;;;23.45;67.67;101868.56;5074083;28;20186;-75
2021/07/17 10:18:24;;;;;;;1.63;1.43;;;;;;;23.73;67.34;101882.38;5074224;28;20182;-75
2021/07/17 10:20:54;;;;;;;1.90;1.63;;;;;;;23.85;66.59;101875.81;5074061;28;20223;-75
2021/07/17 10:23:21;;;;;;;2.30;2.20;;;;;;;23.89;64.51;101849.63;5074342;28;20182;-74
2021/07/17 10:25:47;;;;;;;1.70;1.60;;;;;;;24.13;62.53;101840.09;5073868;28;20213;-75
2021/07/17 10:28:12;;;;;;;1.77;1.67;;;;;;;24.06;62.46;101825.19;5072439;28;20576;-75
2021/07/17 10:30:38;;;;;;;1.63;1.50;;;;;;;24.23;62.68;102109.63;5073506;28;20171;-75
2021/07/17 10:33:04;;;;;;;1.90;1.80;;;;;;;24.26;63.98;101877.03;5073986;28;20201;-76
2021/07/17 10:35:30;;;;;;;1.73;1.30;;;;;;;24.43;63.62;101840.28;5073735;28;20171;-75
2021/07/17 10:37:59;;;;;;;1.40;1.30;;;;;;;24.36;60.83;101826.19;5073970;28;20223;-75
2021/07/17 10:40:25;;;;;;;1.10;1.00;;;;;;;24.14;60.65;101787.84;5073757;28;20183;-75
2021/07/17 10:42:54;;;;;;;2.10;1.10;;;;;;;24.38;62.38;101778.31;5072531;28;20213;-75
2021/07/17 10:45:34;;;;;;;2.33;1.53;;;;;;;24.62;61.40;101770.34;5073515;28;20265;-75
2021/07/17 10:47:59;;;;;;;1.70;1.20;;;;;;;24.56;59.93;101743.09;5073576;28;20200;-75
2021/07/17 10:50:36;;;;;;;2.93;1.83;;;;;;;24.55;59.08;101728.31;5073625;28;20171;-75
2021/07/17 10:53:02;;;;;;;9.87;7.73;;;;;;;24.76;58.29;101718.66;5071869;28;20186;-75
2021/07/17 10:55:29;;;;;;;1.50;1.20;;;;;;;24.63;58.14;101707.69;5073826;28;20178;-75
2021/07/17 10:58:00;;;;;;;1.87;1.60;;;;;;;24.65;57.59;101988.81;5073472;28;20286;-74
2021/07/17 11:00:47;;;;;;;0.67;0.67;;;;;;;24.74;58.43;101989.38;5073322;28;20206;-75
2021/07/17 11:03:19;;;;;;;1.37;0.90;;;;;;;24.65;58.24;101827.50;5073503;28;20649;-75
2021/07/17 11:05:45;;;;;;;1.60;1.30;;;;;;;24.64;57.02;101772.78;5073331;28;20174;-76
2021/07/17 11:08:30;;;;;;;1.40;1.20;;;;;;;24.85;57.61;101758.31;5071823;28;20175;-75
2021/07/17 11:10:56;;;;;;;1.60;0.77;;;;;;;24.84;57.02;101746.31;5072846;28;20287;-75
2021/07/17 11:13:36;;;;;;;0.90;0.77;;;;;;;25.06;60.19;101730.69;5073031;28;20536;-74
2021/07/17 11:16:04;;;;;;;1.20;1.00;;;;;;;25.02;57.41;101709.44;5072812;28;20193;-75